EUS17EF EIDW-EGPH

Flight info

Callsign EUS17EF
Flight time 0h 40m
Altitude 25000
Route ROTEV8E ROTEV P600 TUNSO
Aircraft A320/M-SDE3FGHIRWY/LB1

Departure

Time 2026-04-21 19:38
Airport Dublin Airport (EIDW)

Arrival

Time 2026-04-21 20:19
Airport Edinburgh Airport (EGPH)
Time Latitude Longitude Altitude Speed Heading
2026-04-21 19:03 53.43099 -6.24829 217 ft 0 kts 185°
2026-04-21 19:25 53.43120 -6.24827 211 ft 4 kts 182°
2026-04-21 19:25 53.43146 -6.24825 211 ft 4 kts 185°
2026-04-21 19:25 53.43170 -6.24815 221 ft 4 kts 232°
2026-04-21 19:25 53.43174 -6.24805 215 ft 0 kts 274°
2026-04-21 19:29 53.43183 -6.24850 214 ft 10 kts 296°
2026-04-21 19:29 53.43195 -6.24961 211 ft 10 kts 275°
2026-04-21 19:29 53.43203 -6.25110 213 ft 14 kts 275°
2026-04-21 19:30 53.43210 -6.25261 211 ft 12 kts 271°
2026-04-21 19:30 53.43187 -6.25388 211 ft 11 kts 246°
2026-04-21 19:30 53.43165 -6.25493 217 ft 9 kts 212°
2026-04-21 19:30 53.43109 -6.25472 214 ft 9 kts 157°
2026-04-21 19:31 53.43044 -6.25424 214 ft 12 kts 156°
2026-04-21 19:31 53.42957 -6.25361 214 ft 15 kts 156°
2026-04-21 19:31 53.42858 -6.25288 213 ft 14 kts 156°
2026-04-21 19:31 53.42775 -6.25286 214 ft 9 kts 223°
2026-04-21 19:32 53.42756 -6.25318 211 ft 0 kts 225°
2026-04-21 19:32 53.42743 -6.25340 216 ft 9 kts 225°
2026-04-21 19:32 53.42692 -6.25426 212 ft 14 kts 225°
2026-04-21 19:33 53.42641 -6.25514 220 ft 17 kts 226°
2026-04-21 19:33 53.42526 -6.25714 220 ft 19 kts 225°
2026-04-21 19:33 53.42431 -6.25872 213 ft 21 kts 226°
2026-04-21 19:33 53.42326 -6.26052 211 ft 21 kts 226°
2026-04-21 19:34 53.42266 -6.26263 211 ft 20 kts 267°
2026-04-21 19:34 53.42276 -6.26470 216 ft 15 kts 275°
2026-04-21 19:34 53.42285 -6.26640 211 ft 14 kts 275°
2026-04-21 19:34 53.42295 -6.26824 211 ft 17 kts 275°
2026-04-21 19:35 53.42305 -6.27012 214 ft 16 kts 275°
2026-04-21 19:35 53.42326 -6.27403 211 ft 15 kts 275°
2026-04-21 19:35 53.42336 -6.27572 211 ft 16 kts 275°
2026-04-21 19:36 53.42347 -6.27765 211 ft 17 kts 275°
2026-04-21 19:36 53.42359 -6.27991 211 ft 20 kts 275°
2026-04-21 19:36 53.42375 -6.28272 217 ft 23 kts 275°
2026-04-21 19:36 53.42388 -6.28519 211 ft 21 kts 275°
2026-04-21 19:37 53.42401 -6.28754 211 ft 20 kts 275°
2026-04-21 19:37 53.42410 -6.28977 211 ft 18 kts 261°
2026-04-21 19:37 53.42319 -6.29076 213 ft 16 kts 175°
2026-04-21 19:37 53.42237 -6.28967 213 ft 19 kts 97°
2026-04-21 19:38 53.42213 -6.28454 213 ft 80 kts 95°
2026-04-21 19:38 53.42141 -6.27144 216 ft 142 kts 95°
2026-04-21 19:38 53.42078 -6.26003 532 ft 151 kts 94°
2026-04-21 19:38 53.41916 -6.23558 1517 ft 166 kts 95°
2026-04-21 19:39 53.41822 -6.21510 2188 ft 186 kts 94°
2026-04-21 19:39 53.41760 -6.19250 2979 ft 202 kts 93°
2026-04-21 19:39 53.41670 -6.16822 3833 ft 215 kts 95°
2026-04-21 19:39 53.41551 -6.14165 4485 ft 238 kts 96°
2026-04-21 19:40 53.41389 -6.11397 5340 ft 238 kts 97°
2026-04-21 19:40 53.41201 -6.08619 6066 ft 242 kts 97°
2026-04-21 19:40 53.41037 -6.05777 6931 ft 249 kts 91°
2026-04-21 19:40 53.41404 -6.02914 7860 ft 259 kts 66°
2026-04-21 19:41 53.42579 -6.00569 8835 ft 272 kts 39°
2026-04-21 19:41 53.44385 -5.99460 9829 ft 288 kts
2026-04-21 19:41 53.46425 -5.99591 10651 ft 302 kts 360°
2026-04-21 19:41 53.48597 -5.99862 11073 ft 323 kts 359°
2026-04-21 19:42 53.50874 -6.00156 11822 ft 331 kts 359°
2026-04-21 19:42 53.53193 -6.00459 12696 ft 336 kts 359°
2026-04-21 19:42 53.55535 -6.00764 13559 ft 340 kts 359°
2026-04-21 19:42 53.57912 -6.01069 14384 ft 345 kts 359°
2026-04-21 19:43 53.60321 -6.01372 15156 ft 348 kts 358°
2026-04-21 19:43 53.62753 -6.01673 15884 ft 353 kts 358°
2026-04-21 19:43 53.65214 -6.01971 16640 ft 357 kts 357°
2026-04-21 19:43 53.67697 -6.02274 17434 ft 359 kts 356°
2026-04-21 19:44 53.70198 -6.02581 18225 ft 362 kts 355°
2026-04-21 19:44 53.72714 -6.02888 18946 ft 364 kts 354°
2026-04-21 19:44 53.75252 -6.03202 19627 ft 366 kts 354°
2026-04-21 19:44 53.77798 -6.03520 20342 ft 367 kts 353°
2026-04-21 19:45 53.80349 -6.03839 21079 ft 368 kts 352°
2026-04-21 19:45 53.82914 -6.04157 21744 ft 371 kts 352°
2026-04-21 19:45 53.85494 -6.04475 22424 ft 374 kts 352°
2026-04-21 19:45 53.88097 -6.04800 23069 ft 377 kts 352°
2026-04-21 19:46 53.90726 -6.05128 23747 ft 379 kts 351°
2026-04-21 19:46 53.93329 -6.05452 24333 ft 381 kts 351°
2026-04-21 19:46 53.95979 -6.05780 24875 ft 384 kts 351°
2026-04-21 19:46 53.98653 -6.06112 25267 ft 386 kts 351°
2026-04-21 19:47 54.01344 -6.06239 25378 ft 387 kts 359°
2026-04-21 19:47 54.03957 -6.05444 25401 ft 378 kts 11°
2026-04-21 19:47 54.06410 -6.03740 25402 ft 376 kts 20°
2026-04-21 19:47 54.08723 -6.01835 25401 ft 373 kts 20°
2026-04-21 19:48 54.11064 -5.99924 25414 ft 372 kts 19°
2026-04-21 19:48 54.13423 -5.98002 25406 ft 371 kts 19°
2026-04-21 19:48 54.15753 -5.96100 25407 ft 371 kts 19°
2026-04-21 19:48 54.18079 -5.94199 25406 ft 371 kts 19°
2026-04-21 19:49 54.20414 -5.92288 25418 ft 371 kts 19°
2026-04-21 19:49 54.22742 -5.90376 25418 ft 371 kts 19°
2026-04-21 19:49 54.24282 -5.89107 25418 ft 371 kts 19°
2026-04-21 19:49 54.27385 -5.86536 25418 ft 371 kts 20°
2026-04-21 19:50 54.28928 -5.85259 25418 ft 371 kts 19°
2026-04-21 19:50 54.31247 -5.83343 25423 ft 371 kts 19°
2026-04-21 19:50 54.33566 -5.81424 25424 ft 371 kts 19°
2026-04-21 19:50 54.35889 -5.79497 25424 ft 371 kts 20°
2026-04-21 19:51 54.38209 -5.77570 25438 ft 370 kts 20°
2026-04-21 19:51 54.40525 -5.75642 25445 ft 370 kts 20°
2026-04-21 19:51 54.42840 -5.73718 25447 ft 369 kts 20°
2026-04-21 19:51 54.45155 -5.71790 25448 ft 369 kts 20°
2026-04-21 19:52 54.47463 -5.69868 25449 ft 369 kts 20°
2026-04-21 19:52 54.49771 -5.67946 25448 ft 369 kts 20°
2026-04-21 19:52 54.52078 -5.66017 25448 ft 368 kts 20°
2026-04-21 19:52 54.54382 -5.64088 25447 ft 368 kts 20°
2026-04-21 19:53 54.56686 -5.62157 25450 ft 368 kts 20°
2026-04-21 19:53 54.58967 -5.60130 25446 ft 371 kts 26°
2026-04-21 19:53 54.61059 -5.57453 25445 ft 378 kts 36°
2026-04-21 19:53 54.63029 -5.54456 25460 ft 378 kts 36°
2026-04-21 19:54 54.65000 -5.51469 25460 ft 377 kts 37°
2026-04-21 19:54 54.66968 -5.48489 25462 ft 376 kts 36°
2026-04-21 19:54 54.68936 -5.45506 25462 ft 375 kts 36°
2026-04-21 19:54 54.70896 -5.42534 25461 ft 375 kts 36°
2026-04-21 19:55 54.72856 -5.39565 25470 ft 374 kts 37°
2026-04-21 19:55 54.74812 -5.36592 25470 ft 374 kts 38°
2026-04-21 19:55 54.76767 -5.33615 25464 ft 381 kts 38°
2026-04-21 19:55 54.78809 -5.30514 25452 ft 397 kts 38°
2026-04-21 19:56 54.80899 -5.27330 25455 ft 402 kts 38°
2026-04-21 19:56 54.82995 -5.24117 25453 ft 403 kts 38°
2026-04-21 19:56 54.85099 -5.20883 25447 ft 404 kts 38°
2026-04-21 19:56 54.87204 -5.17652 25447 ft 403 kts 37°
2026-04-21 19:57 54.89489 -5.14900 25445 ft 398 kts 24°
2026-04-21 19:57 54.91961 -5.12736 25447 ft 398 kts 24°
2026-04-21 19:57 54.94443 -5.10595 25447 ft 398 kts 24°
2026-04-21 19:57 54.96926 -5.08458 25453 ft 398 kts 24°
2026-04-21 19:58 54.99409 -5.06317 25452 ft 398 kts 24°
2026-04-21 19:58 55.01894 -5.04169 25450 ft 398 kts 24°
2026-04-21 19:58 55.04375 -5.02019 25451 ft 398 kts 24°
2026-04-21 19:58 55.06857 -4.99863 25458 ft 398 kts 24°
2026-04-21 19:59 55.09288 -4.97548 25450 ft 400 kts 33°
2026-04-21 19:59 55.11309 -4.94205 25449 ft 402 kts 51°
2026-04-21 19:59 55.12666 -4.90036 25401 ft 390 kts 65°
2026-04-21 19:59 55.13733 -4.85774 25283 ft 376 kts 65°
2026-04-21 20:00 55.14762 -4.81620 24983 ft 369 kts 66°
2026-04-21 20:00 55.15769 -4.77535 24644 ft 363 kts 66°
2026-04-21 20:00 55.16760 -4.73509 24283 ft 358 kts 67°
2026-04-21 20:00 55.17736 -4.69541 23900 ft 353 kts 68°
2026-04-21 20:01 55.18699 -4.65640 23510 ft 347 kts 68°
2026-04-21 20:01 55.19651 -4.61787 23103 ft 342 kts 69°
2026-04-21 20:01 55.20576 -4.58031 22653 ft 339 kts 69°
2026-04-21 20:01 55.21505 -4.54253 22226 ft 336 kts 69°
2026-04-21 20:02 55.22422 -4.50510 21803 ft 333 kts 68°
2026-04-21 20:02 55.23330 -4.46798 21370 ft 331 kts 69°
2026-04-21 20:02 55.24234 -4.43106 20974 ft 328 kts 69°
2026-04-21 20:02 55.25127 -4.39448 20551 ft 326 kts 69°
2026-04-21 20:03 55.26013 -4.35815 20168 ft 323 kts 69°
2026-04-21 20:03 55.26891 -4.32206 19785 ft 320 kts 69°
2026-04-21 20:03 55.27762 -4.28616 19380 ft 319 kts 69°
2026-04-21 20:03 55.28623 -4.25053 19034 ft 315 kts 69°
2026-04-21 20:04 55.29476 -4.21519 18613 ft 314 kts 69°
2026-04-21 20:04 55.30327 -4.17999 18193 ft 312 kts 69°
2026-04-21 20:04 55.31172 -4.14509 17812 ft 309 kts 69°
2026-04-21 20:04 55.32008 -4.11045 17385 ft 308 kts 69°
2026-04-21 20:05 55.32837 -4.07599 17027 ft 305 kts 69°
2026-04-21 20:05 55.33656 -4.04184 16660 ft 303 kts 69°
2026-04-21 20:05 55.34465 -4.00808 16292 ft 301 kts 69°
2026-04-21 20:05 55.35278 -3.97409 15972 ft 298 kts 69°
2026-04-21 20:06 55.36071 -3.94089 15673 ft 290 kts 69°
2026-04-21 20:06 55.36842 -3.90855 15229 ft 284 kts 69°
2026-04-21 20:06 55.37598 -3.87684 14715 ft 279 kts 69°
2026-04-21 20:06 55.38345 -3.84545 14101 ft 277 kts 69°
2026-04-21 20:07 55.39086 -3.81443 13447 ft 274 kts 68°
2026-04-21 20:07 55.40154 -3.78695 12793 ft 275 kts 46°
2026-04-21 20:07 55.41779 -3.76921 12153 ft 279 kts 22°
2026-04-21 20:07 55.43726 -3.76447 11521 ft 288 kts
2026-04-21 20:08 55.45732 -3.76457 11020 ft 286 kts
2026-04-21 20:08 55.47707 -3.76481 10584 ft 281 kts
2026-04-21 20:08 55.49647 -3.76501 10148 ft 277 kts
2026-04-21 20:08 55.51563 -3.76514 9686 ft 275 kts
2026-04-21 20:09 55.53482 -3.76522 9249 ft 275 kts
2026-04-21 20:09 55.55381 -3.76529 8908 ft 272 kts
2026-04-21 20:09 55.57259 -3.76539 8596 ft 269 kts
2026-04-21 20:09 55.59121 -3.76548 8287 ft 267 kts
2026-04-21 20:10 55.60972 -3.76554 7980 ft 263 kts
2026-04-21 20:10 55.62781 -3.76561 7684 ft 258 kts
2026-04-21 20:10 55.64560 -3.76573 7383 ft 253 kts
2026-04-21 20:10 55.66301 -3.76588 7086 ft 248 kts
2026-04-21 20:11 55.68012 -3.76600 6785 ft 243 kts
2026-04-21 20:11 55.69691 -3.76608 6469 ft 239 kts
2026-04-21 20:11 55.71341 -3.76615 6159 ft 236 kts
2026-04-21 20:11 55.72957 -3.76622 5850 ft 234 kts
2026-04-21 20:12 55.74581 -3.76627 5542 ft 233 kts
2026-04-21 20:12 55.76197 -3.76631 5234 ft 232 kts
2026-04-21 20:12 55.77803 -3.76636 4916 ft 230 kts
2026-04-21 20:12 55.79398 -3.76641 4600 ft 229 kts
2026-04-21 20:13 55.80941 -3.76301 4292 ft 217 kts 27°
2026-04-21 20:13 55.82102 -3.74845 4167 ft 197 kts 54°
2026-04-21 20:13 55.82852 -3.72788 4079 ft 203 kts 61°
2026-04-21 20:13 55.83595 -3.70624 4062 ft 207 kts 61°
2026-04-21 20:14 55.84347 -3.68436 3996 ft 208 kts 61°
2026-04-21 20:14 55.85097 -3.66257 3781 ft 204 kts 61°
2026-04-21 20:14 55.85825 -3.64136 3529 ft 197 kts 61°
2026-04-21 20:14 55.86512 -3.62138 3280 ft 181 kts 61°
2026-04-21 20:15 55.87140 -3.60306 3022 ft 166 kts 61°
2026-04-21 20:15 55.87715 -3.58627 2801 ft 153 kts 62°
2026-04-21 20:15 55.88253 -3.57055 2590 ft 145 kts 61°
2026-04-21 20:15 55.88764 -3.55561 2426 ft 135 kts 61°
2026-04-21 20:16 55.89231 -3.54193 2221 ft 125 kts 61°
2026-04-21 20:16 55.89674 -3.52896 2045 ft 121 kts 61°
2026-04-21 20:16 55.90111 -3.51613 1875 ft 121 kts 61°
2026-04-21 20:16 55.90550 -3.50328 1706 ft 121 kts 62°
2026-04-21 20:17 55.90986 -3.49048 1531 ft 121 kts 61°
2026-04-21 20:17 55.91422 -3.47768 1366 ft 120 kts 61°
2026-04-21 20:17 55.91857 -3.46491 1187 ft 120 kts 60°
2026-04-21 20:17 55.92292 -3.45214 1016 ft 120 kts 61°
2026-04-21 20:18 55.92578 -3.44375 905 ft 120 kts 60°
2026-04-21 20:18 55.93175 -3.42621 671 ft 126 kts 60°
2026-04-21 20:18 55.93627 -3.41288 469 ft 127 kts 59°
2026-04-21 20:18 55.94083 -3.39963 307 ft 125 kts 59°
2026-04-21 20:19 55.94532 -3.38648 156 ft 124 kts 60°
2026-04-21 20:19 55.94946 -3.37415 112 ft 96 kts 58°
2026-04-21 20:19 55.95170 -3.36747 114 ft 37 kts 59°
2026-04-21 20:19 55.95262 -3.36462 110 ft 16 kts 76°
2026-04-21 20:20 55.95193 -3.36350 114 ft 11 kts 149°
2026-04-21 20:20 55.95171 -3.36327 113 ft 0 kts 148°
2026-04-21 20:20 55.95157 -3.36312 115 ft 8 kts 154°
2026-04-21 20:21 55.95108 -3.36364 115 ft 9 kts 228°
2026-04-21 20:21 55.95066 -3.36483 115 ft 14 kts 239°
2026-04-21 20:21 55.95018 -3.36625 115 ft 13 kts 239°
2026-04-21 20:21 55.94971 -3.36763 114 ft 13 kts 239°
2026-04-21 20:22 55.94910 -3.36815 113 ft 11 kts 149°
2026-04-21 20:22 55.94964 -3.36544 116 ft 12 kts 58°
2026-04-21 20:22 55.94999 -3.36438 116 ft 7 kts 70°
2026-04-21 20:23 55.94973 -3.36392 115 ft 4 kts 149°
2026-04-21 20:23 55.94950 -3.36367 115 ft 3 kts 148°
2026-04-21 20:23 55.94943 -3.36359 116 ft 0 kts 148°